Time;durP1;ratioP1;P1;durP2;ratioP2;P2;SDS_P1;SDS_P2;PMS_P1;PMS_P2;Temp;Humidity;BMP_temperature;BMP_pressure;BME280_temperature;BME280_humidity;BME280_pressure;Samples;Min_cycle;Max_cycle;Signal;HPM_P1;HPM_P2
2021/06/01 00:01:02;;;;;;;3.05;2.15;;;;;;;10.56;64.06;99224.25;5039305;28;20055;-90
2021/06/01 00:03:39;;;;;;;2.85;2.05;;;;;;;10.45;63.86;99225.53;5038029;28;20057;-91
2021/06/01 00:06:23;;;;;;;3.25;2.50;;;;;;;10.35;63.43;99203.19;5032548;28;20079;-90
2021/06/01 00:08:53;;;;;;;5.38;2.70;;;;;;;10.42;63.40;99217.75;5018997;28;20054;-91
2021/06/01 00:12:06;;;;;;;4.00;2.47;;;;;;;10.21;63.81;99204.81;5032247;28;20049;-90
2021/06/01 00:14:58;;;;;;;4.28;2.40;;;;;;;10.22;64.50;99212.78;5037611;28;20095;-91
2021/06/01 00:17:43;;;;;;;2.72;2.28;;;;;;;10.09;64.68;99226.97;5033839;28;20409;-89
2021/06/01 00:20:21;;;;;;;5.35;2.45;;;;;;;9.77;65.45;99206.31;5009561;28;20080;-90
2021/06/01 00:23:19;;;;;;;3.40;3.03;;;;;;;9.78;66.04;99218.84;5026033;28;20052;-91
2021/06/01 00:26:04;;;;;;;4.35;2.70;;;;;;;9.62;66.82;99221.63;5038581;28;20512;-90
2021/06/01 00:28:47;;;;;;;3.92;2.53;;;;;;;9.24;68.33;99203.31;5021406;28;20104;-90
2021/06/01 00:34:26;;;;;;;5.05;2.83;;;;;;;9.30;68.11;99205.31;5033353;28;20077;-90
2021/06/01 00:36:54;;;;;;;4.72;2.55;;;;;;;9.24;68.26;99224.19;5033774;28;20104;-90
2021/06/01 00:39:30;;;;;;;5.95;2.88;;;;;;;9.04;69.40;99205.59;5035209;28;20080;-89
2021/06/01 00:42:07;;;;;;;6.35;3.00;;;;;;;9.13;69.12;99230.81;5038314;28;20053;-91
2021/06/01 00:44:39;;;;;;;3.00;2.42;;;;;;;9.13;67.81;99204.53;5036444;28;20141;-90
2021/06/01 00:47:08;;;;;;;3.63;2.30;;;;;;;9.19;67.99;99217.41;5035977;28;20055;-91
2021/06/01 00:49:35;;;;;;;5.15;2.80;;;;;;;8.98;69.13;99207.13;5034934;28;20069;-89
2021/06/01 00:52:02;;;;;;;5.93;2.45;;;;;;;8.75;69.83;99223.28;5033553;28;20096;-89
2021/06/01 00:54:35;;;;;;;6.90;2.95;;;;;;;8.67;70.62;99223.28;5035567;28;20073;-90
2021/06/01 00:57:05;;;;;;;3.35;2.33;;;;;;;8.36;71.33;99199.56;5035136;28;20133;-90
2021/06/01 00:59:33;;;;;;;4.15;2.30;;;;;;;8.38;71.96;99218.38;5033283;28;20140;-90
2021/06/01 01:02:01;;;;;;;3.85;2.58;;;;;;;8.52;71.10;99206.88;5033649;28;20060;-90
2021/06/01 01:04:28;;;;;;;2.97;2.40;;;;;;;8.75;70.07;99215.16;5034232;28;20049;-89
2021/06/01 01:07:14;;;;;;;4.20;2.42;;;;;;;8.64;70.31;99204.66;5034127;28;20490;-89
2021/06/01 01:10:07;;;;;;;2.90;2.33;;;;;;;8.50;71.18;99193.47;5035238;28;20053;-88
2021/06/01 01:12:46;;;;;;;4.22;2.90;;;;;;;8.48;71.77;99206.38;5020236;28;20049;-90
2021/06/01 01:15:20;;;;;;;4.20;2.50;;;;;;;8.40;71.83;99213.59;5037965;28;20041;-88
2021/06/01 01:17:53;;;;;;;3.58;2.55;;;;;;;8.52;70.96;99203.31;5032980;28;20045;-88
2021/06/01 01:20:31;;;;;;;3.47;2.13;;;;;;;8.45;71.28;99187.75;5032269;28;20107;-89
2021/06/01 01:23:01;;;;;;;5.57;2.70;;;;;;;8.54;71.31;99202.13;5016565;28;20068;-89
2021/06/01 01:25:34;;;;;;;3.08;2.75;;;;;;;8.50;71.67;99226.00;5032405;28;20057;-89
2021/06/01 01:28:16;;;;;;;3.60;2.25;;;;;;;8.21;72.11;99199.41;5027482;28;20061;-89
2021/06/01 01:30:46;;;;;;;3.50;2.17;;;;;;;8.36;71.86;99212.28;5013460;28;20050;-88
2021/06/01 01:33:24;;;;;;;2.97;2.45;;;;;;;8.27;71.70;99211.44;5031097;28;20149;-89
2021/06/01 01:35:54;;;;;;;2.90;2.55;;;;;;;8.23;71.60;99216.31;5029930;28;20049;-89
2021/06/01 01:38:22;;;;;;;4.35;2.97;;;;;;;8.05;72.12;99202.09;5013241;28;20510;-89
2021/06/01 01:40:49;;;;;;;7.20;2.50;;;;;;;8.13;71.85;99202.13;5028303;28;20056;-89
2021/06/01 01:43:19;;;;;;;3.90;2.63;;;;;;;8.10;71.80;99189.75;5032908;28;20045;-89
2021/06/01 01:45:50;;;;;;;4.72;2.45;;;;;;;8.21;71.68;99199.41;5024827;28;20045;-89
2021/06/01 01:51:16;;;;;;;3.45;2.97;;;;;;;8.49;70.45;99208.06;5024271;28;20051;-88
2021/06/01 01:53:48;;;;;;;6.28;3.40;;;;;;;8.25;70.96;99189.06;5030810;28;20050;-89
2021/06/01 01:56:17;;;;;;;3.13;2.47;;;;;;;8.21;71.15;99185.03;5032953;28;20049;-89
2021/06/01 01:58:44;;;;;;;4.30;2.42;;;;;;;8.16;70.56;99199.06;5033167;28;20053;-89
2021/06/01 02:01:11;;;;;;;4.60;2.80;;;;;;;8.27;70.16;99196.00;5032595;28;20048;-89
2021/06/01 02:03:40;;;;;;;3.20;2.72;;;;;;;8.32;70.04;99193.66;5034294;28;20052;-89
2021/06/01 02:06:08;;;;;;;4.15;2.75;;;;;;;8.17;70.48;99216.16;5036484;28;20072;-89
2021/06/01 02:08:38;;;;;;;2.95;2.42;;;;;;;7.92;71.43;99206.16;5036922;28;20128;-89
2021/06/01 02:11:05;;;;;;;4.63;2.80;;;;;;;7.76;72.57;99204.25;5036806;28;20098;-89
2021/06/01 02:13:33;;;;;;;2.92;2.55;;;;;;;7.60;72.79;99202.38;5036213;28;20567;-89
2021/06/01 02:16:00;;;;;;;5.38;2.92;;;;;;;7.58;72.94;99212.47;5036559;28;20072;-89
2021/06/01 02:18:26;;;;;;;3.72;2.70;;;;;;;7.60;73.57;99199.66;5036463;28;20056;-89
2021/06/01 02:20:55;;;;;;;4.50;2.75;;;;;;;7.52;73.85;99196.06;5036638;28;20054;-89
2021/06/01 02:23:48;;;;;;;3.28;2.58;;;;;;;7.66;73.52;99202.69;5036406;28;20057;-89
2021/06/01 02:26:28;;;;;;;2.67;2.45;;;;;;;7.55;73.40;99184.94;5033907;28;20079;-89
2021/06/01 02:28:59;;;;;;;2.80;2.40;;;;;;;7.62;73.45;99211.16;5016742;28;20733;-90
2021/06/01 02:31:30;;;;;;;3.72;2.78;;;;;;;7.69;73.47;99218.59;5016850;28;20053;-90
2021/06/01 02:33:58;;;;;;;2.25;2.00;;;;;;;7.67;73.54;99217.94;5031941;28;20103;-90
2021/06/01 02:36:29;;;;;;;3.05;2.75;;;;;;;7.52;73.41;99190.66;5036361;28;20053;-89
2021/06/01 02:39:00;;;;;;;3.17;2.70;;;;;;;7.68;72.89;99215.06;5036419;28;20045;-90
2021/06/01 02:41:26;;;;;;;;;;;;;;;7.64;73.39;99220.97;5036320;28;20053;-90
2021/06/01 02:43:54;;;;;;;5.07;2.97;;;;;;;7.51;73.78;99202.50;5036500;28;19925;-89
2021/06/01 02:46:21;;;;;;;3.60;2.88;;;;;;;7.52;73.29;99191.50;5016582;28;20129;-89
2021/06/01 02:48:49;;;;;;;4.07;2.50;;;;;;;7.44;73.15;99203.16;5028535;28;20053;-90
2021/06/01 02:51:17;;;;;;;3.75;2.47;;;;;;;7.48;73.68;99216.34;5028490;28;20069;-89
2021/06/01 02:53:46;;;;;;;3.80;2.90;;;;;;;7.54;72.97;99203.03;5015912;28;20516;-89
2021/06/01 02:56:16;;;;;;;4.50;3.30;;;;;;;7.59;73.10;99224.16;5025897;28;20057;-89
2021/06/01 02:58:44;;;;;;;4.05;2.90;;;;;;;7.53;73.21;99214.00;5024418;28;20044;-89
2021/06/01 03:01:14;;;;;;;3.15;2.80;;;;;;;7.58;73.01;99212.47;5035804;28;20073;-89
2021/06/01 03:03:45;;;;;;;4.00;2.75;;;;;;;7.29;73.20;99220.16;5035341;28;20054;-89
2021/06/01 03:06:12;;;;;;;4.05;2.95;;;;;;;7.11;73.97;99207.56;5035608;28;20049;-88
2021/06/01 03:08:40;;;;;;;3.92;2.58;;;;;;;6.84;74.45;99212.16;5035302;28;20042;-89
2021/06/01 03:11:07;;;;;;;3.88;2.38;;;;;;;6.50;75.25;99199.47;5030252;28;20061;-89
2021/06/01 03:13:38;;;;;;;3.00;2.70;;;;;;;6.54;75.73;99225.13;5035228;28;20111;-89
2021/06/01 03:16:05;;;;;;;4.35;2.95;;;;;;;6.55;75.72;99228.69;5035238;28;20108;-88
2021/06/01 03:18:31;;;;;;;2.58;2.33;;;;;;;6.52;76.35;99232.56;5034690;28;20041;-88
2021/06/01 03:20:58;;;;;;;3.83;2.92;;;;;;;6.54;76.48;99224.28;5035304;28;20049;-88
2021/06/01 03:23:25;;;;;;;4.65;2.70;;;;;;;6.60;76.17;99214.72;5034812;28;20053;-89
2021/06/01 03:25:54;;;;;;;6.32;2.95;;;;;;;6.75;75.93;99212.28;5034805;28;20123;-89
2021/06/01 03:28:21;;;;;;;3.75;2.85;;;;;;;6.88;75.41;99200.03;5034814;28;20080;-88
2021/06/01 03:30:50;;;;;;;4.22;2.97;;;;;;;6.76;75.41;99211.25;5034954;28;20061;-88
2021/06/01 03:33:17;;;;;;;3.58;2.60;;;;;;;6.45;75.53;99198.22;5033869;28;20072;-88
2021/06/01 03:35:44;;;;;;;4.30;2.60;;;;;;;6.33;75.91;99195.78;5029569;28;20559;-88
2021/06/01 03:38:11;;;;;;;6.30;2.83;;;;;;;6.35;76.61;99217.22;5028802;28;20123;-88
2021/06/01 03:40:38;;;;;;;3.80;2.95;;;;;;;6.35;77.04;99206.41;5034711;28;20063;-88
2021/06/01 03:43:05;;;;;;;3.92;3.10;;;;;;;6.43;76.57;99198.38;5034453;28;20053;-88
2021/06/01 03:45:32;;;;;;;4.13;3.15;;;;;;;6.57;76.59;99215.03;5034646;28;20049;-88
2021/06/01 03:48:00;;;;;;;5.03;3.25;;;;;;;6.55;76.85;99207.09;5034931;28;20056;-88
2021/06/01 03:50:27;;;;;;;6.80;3.15;;;;;;;6.63;76.69;99193.63;5034126;28;20062;-88
2021/06/01 03:52:54;;;;;;;4.68;3.10;;;;;;;6.67;76.70;99199.53;5034545;28;20075;-88
2021/06/01 03:55:22;;;;;;;4.90;2.92;;;;;;;6.84;76.15;99212.16;5033817;28;20149;-87
2021/06/01 03:57:50;;;;;;;4.85;3.08;;;;;;;6.72;76.08;99192.66;5033674;28;20046;-88
2021/06/01 04:00:20;;;;;;;4.20;2.90;;;;;;;6.83;75.72;99212.31;5033618;28;20068;-88
2021/06/01 04:02:47;;;;;;;6.30;2.95;;;;;;;6.83;75.27;99218.56;5033493;28;20061;-88
2021/06/01 04:05:15;;;;;;;4.40;3.35;;;;;;;6.95;75.49;99218.31;5033722;28;20108;-88
2021/06/01 04:07:41;;;;;;;5.18;3.35;;;;;;;6.93;75.86;99204.13;5033263;28;20464;-88
2021/06/01 04:10:09;;;;;;;6.78;3.47;;;;;;;6.88;75.69;99188.34;5017793;28;20056;-88
2021/06/01 04:12:36;;;;;;;4.00;3.17;;;;;;;6.85;75.89;99202.19;5033461;28;20584;-88
2021/06/01 04:15:04;;;;;;;3.53;3.22;;;;;;;7.13;75.92;99220.94;5033844;28;20394;-88
2021/06/01 04:17:31;;;;;;;4.93;3.00;;;;;;;6.98;75.73;99210.72;5033548;28;20053;-88
2021/06/01 04:19:58;;;;;;;3.95;3.03;;;;;;;7.05;75.47;99225.28;5033366;28;20049;-88
2021/06/01 04:22:26;;;;;;;5.00;3.30;;;;;;;7.02;76.13;99222.06;5033645;28;20049;-88
2021/06/01 04:24:52;;;;;;;5.93;3.35;;;;;;;6.93;76.09;99196.84;5033353;28;20057;-88
2021/06/01 04:27:19;;;;;;;6.53;3.47;;;;;;;7.17;75.81;99217.75;5024968;28;20106;-88
2021/06/01 04:29:45;;;;;;;4.72;3.50;;;;;;;7.08;76.29;99210.59;5033895;28;20054;-88
2021/06/01 04:32:12;;;;;;;3.95;3.17;;;;;;;7.08;76.36;99216.00;5033543;28;20386;-88
2021/06/01 04:34:38;;;;;;;5.80;3.03;;;;;;;7.22;75.97;99225.38;5033719;28;20076;-88
2021/06/01 04:37:05;;;;;;;5.07;3.53;;;;;;;7.34;75.42;99209.72;5032774;28;20127;-88
2021/06/01 04:39:33;;;;;;;3.75;3.30;;;;;;;7.48;75.93;99243.41;5023675;28;20128;-88
2021/06/01 04:41:59;;;;;;;5.05;3.53;;;;;;;7.35;76.04;99209.53;5033117;28;20524;-88
2021/06/01 04:44:26;;;;;;;3.72;2.95;;;;;;;7.41;76.28;99214.28;5033495;28;20064;-88
2021/06/01 04:46:52;;;;;;;5.10;3.08;;;;;;;7.53;75.90;99231.06;5033831;28;20053;-88
2021/06/01 04:49:20;;;;;;;4.93;3.05;;;;;;;7.56;75.83;99210.97;5031268;28;20060;-88
2021/06/01 04:51:46;;;;;;;3.83;2.97;;;;;;;7.63;75.34;99206.56;5018716;28;20053;-88
2021/06/01 04:54:13;;;;;;;6.68;3.65;;;;;;;7.62;75.20;99204.91;5033371;28;20413;-88
2021/06/01 04:56:41;;;;;;;4.25;3.30;;;;;;;7.83;75.49;99214.41;5033239;28;20056;-88
2021/06/01 04:59:07;;;;;;;4.50;3.47;;;;;;;8.36;73.30;99182.47;5032882;28;20489;-88
2021/06/01 05:01:33;;;;;;;4.95;3.63;;;;;;;9.17;70.01;99189.63;5033059;28;20057;-88
2021/06/01 05:04:00;;;;;;;5.72;3.60;;;;;;;10.11;66.47;99205.03;5018719;28;20053;-89
2021/06/01 05:06:26;;;;;;;4.57;3.17;;;;;;;10.75;64.30;99173.97;5023577;28;20386;-88
2021/06/01 05:08:53;;;;;;;5.43;3.20;;;;;;;11.28;62.97;99177.41;5019914;28;20064;-88
2021/06/01 05:11:20;;;;;;;4.82;3.00;;;;;;;11.97;60.59;99178.91;5014225;28;20053;-88
2021/06/01 05:13:48;;;;;;;4.88;3.10;;;;;;;12.59;58.81;99183.88;5033190;28;20065;-89
2021/06/01 05:16:15;;;;;;;5.60;2.90;;;;;;;12.89;58.27;99195.41;5033565;28;20053;-88
2021/06/01 05:18:42;;;;;;;4.43;2.78;;;;;;;13.50;56.79;99202.09;5033315;28;20134;-89
2021/06/01 05:21:09;;;;;;;3.72;2.92;;;;;;;13.42;56.22;99175.81;5033527;28;20049;-89
2021/06/01 05:23:43;;;;;;;3.58;2.90;;;;;;;13.71;55.19;99180.09;5033815;28;20490;-89
2021/06/01 05:26:10;;;;;;;8.35;3.20;;;;;;;13.52;55.82;99170.81;5038396;28;20034;-89
2021/06/01 05:28:37;;;;;;;9.55;3.58;;;;;;;13.51;56.50;99201.06;5047813;28;20049;-89
2021/06/01 05:31:14;;;;;;;9.38;4.07;;;;;;;14.06;54.21;99182.75;5051561;28;20076;-90
2021/06/01 05:33:44;;;;;;;3.30;2.70;;;;;;;14.74;53.90;99197.31;5051058;28;20111;-89
2021/06/01 05:36:25;;;;;;;3.67;2.25;;;;;;;14.78;54.18;99184.91;5048420;28;20053;-89
2021/06/01 05:38:54;;;;;;;3.83;2.70;;;;;;;14.82;54.09;99178.78;5051586;28;20140;-89
2021/06/01 05:41:21;;;;;;;5.75;2.60;;;;;;;14.95;53.41;99177.09;5039923;28;20053;-90
2021/06/01 05:43:48;;;;;;;7.65;3.00;;;;;;;15.29;52.93;99192.38;5039134;28;20103;-90
2021/06/01 05:46:16;;;;;;;7.32;2.88;;;;;;;15.33;53.16;99184.59;5038749;28;20054;-90
2021/06/01 05:48:43;;;;;;;3.63;2.75;;;;;;;15.56;52.31;99186.81;5038520;28;20045;-90
2021/06/01 05:51:10;;;;;;;6.15;3.22;;;;;;;15.50;52.89;99180.31;5036483;28;20180;-89
2021/06/01 05:53:54;;;;;;;5.35;3.05;;;;;;;15.67;51.94;99166.13;5040245;28;20061;-92
2021/06/01 05:56:21;;;;;;;7.55;3.30;;;;;;;16.00;51.51;99165.13;5033155;28;20057;-93
2021/06/01 05:58:47;;;;;;;8.48;3.25;;;;;;;16.26;50.52;99166.88;5036365;28;20046;-93
2021/06/01 06:01:16;;;;;;;3.05;2.47;;;;;;;16.32;50.33;99187.94;5037328;28;20056;-93
2021/06/01 06:03:43;;;;;;;3.33;2.72;;;;;;;16.67;49.06;99170.97;5036529;28;20496;-93
2021/06/01 06:06:11;;;;;;;15.18;3.13;;;;;;;17.20;48.63;99172.38;5036079;28;20061;-94
2021/06/01 06:08:38;;;;;;;16.10;3.00;;;;;;;17.43;47.93;99166.22;5037296;28;20111;-94
2021/06/01 06:11:05;;;;;;;13.68;3.03;;;;;;;17.44;47.56;99164.31;5036482;28;20061;-94
2021/06/01 06:13:31;;;;;;;9.57;2.50;;;;;;;17.75;47.21;99176.16;5036559;28;20060;-93
2021/06/01 06:15:59;;;;;;;7.80;2.50;;;;;;;17.94;46.85;99155.84;5036249;28;20041;-93
2021/06/01 06:18:45;;;;;;;12.65;2.90;;;;;;;18.11;45.24;99161.53;5039817;28;20057;-93
2021/06/01 06:21:14;;;;;;;12.52;2.55;;;;;;;18.04;44.57;99152.53;5035805;28;20148;-93
2021/06/01 06:23:41;;;;;;;6.30;2.65;;;;;;;18.66;44.10;99171.47;5036579;28;20139;-94
2021/06/01 06:26:08;;;;;;;7.85;2.15;;;;;;;18.66;44.16;99163.19;5029659;28;20046;-94
2021/06/01 06:28:39;;;;;;;6.75;2.17;;;;;;;18.82;42.99;99182.84;5036942;28;20507;-93
2021/06/01 06:33:52;;;;;;;10.43;2.85;;;;;;;19.27;41.65;99174.84;5040875;28;20057;-94
2021/06/01 06:36:19;;;;;;;3.33;1.60;;;;;;;19.88;40.48;99155.16;5035720;28;20051;-89
2021/06/01 06:38:47;;;;;;;6.70;1.85;;;;;;;19.77;41.72;99158.78;5036919;28;20237;-94
2021/06/01 06:41:25;;;;;;;7.75;1.95;;;;;;;20.03;40.88;99162.91;5037343;28;20068;-91
2021/06/01 06:43:55;;;;;;;10.38;3.78;;;;;;;20.24;39.88;99164.09;5054567;28;20113;-92
2021/06/01 06:46:25;;;;;;;3.03;1.90;;;;;;;20.47;38.79;99152.09;5046117;28;20175;-92
2021/06/01 06:48:57;;;;;;;4.50;1.73;;;;;;;20.10;39.57;99157.25;5031135;28;20052;-93
2021/06/01 06:51:37;;;;;;;2.63;2.03;;;;;;;20.38;38.82;99166.56;5034358;28;20049;-92
2021/06/01 06:54:30;;;;;;;;;;;;;;;20.40;37.54;99165.22;5060277;28;20045;-90
2021/06/01 06:57:06;;;;;;;5.18;1.60;;;;;;;20.48;36.35;99153.75;5033650;28;19920;-91
2021/06/01 06:59:35;;;;;;;2.25;1.55;;;;;;;20.89;36.54;99177.66;5037029;28;20060;-91
2021/06/01 07:02:03;;;;;;;2.90;1.87;;;;;;;20.98;37.93;99159.56;5036342;28;20092;-91
2021/06/01 07:04:32;;;;;;;2.60;1.40;;;;;;;21.11;36.57;99155.59;5035597;28;20099;-90
2021/06/01 07:07:03;;;;;;;2.28;1.83;;;;;;;21.25;37.14;99154.13;5035589;28;20052;-91
2021/06/01 07:09:29;;;;;;;1.90;1.42;;;;;;;21.65;35.81;99168.78;5028283;28;20459;-91
2021/06/01 07:11:56;;;;;;;4.75;1.70;;;;;;;21.00;36.26;99149.06;5034401;28;20049;-89
2021/06/01 07:14:31;;;;;;;8.32;1.63;;;;;;;21.39;36.84;99138.84;5033157;28;20124;-90
2021/06/01 07:16:58;;;;;;;2.72;1.60;;;;;;;21.66;36.92;99143.63;5026458;28;20053;-89
2021/06/01 07:19:25;;;;;;;2.33;1.65;;;;;;;21.50;36.73;99148.13;5034076;28;20060;-90
2021/06/01 07:22:08;;;;;;;4.40;1.60;;;;;;;21.81;36.73;99142.13;5033604;28;20045;-89
2021/06/01 07:24:35;;;;;;;1.98;1.60;;;;;;;21.80;35.43;99137.69;5033481;28;20099;-89
2021/06/01 07:27:02;;;;;;;4.40;1.60;;;;;;;22.16;35.22;99146.38;5029759;28;20095;-88
2021/06/01 07:29:32;;;;;;;2.65;1.60;;;;;;;22.13;36.05;99141.34;5033071;28;20073;-88
2021/06/01 07:31:58;;;;;;;;;;;;;;;22.29;33.65;99148.72;5033726;28;20140;-89
2021/06/01 07:34:24;;;;;;;3.28;1.80;;;;;;;22.45;34.00;99149.75;5032944;28;20301;-88
2021/06/01 07:36:51;;;;;;;4.60;2.08;;;;;;;22.26;36.29;99141.75;5033328;28;20049;-89
2021/06/01 07:39:19;;;;;;;3.00;1.90;;;;;;;22.44;35.91;99151.66;5032539;28;20045;-86
2021/06/01 07:41:48;;;;;;;4.15;1.52;;;;;;;22.48;33.30;99138.13;5034560;28;20456;-90
2021/06/01 07:44:15;;;;;;;5.40;1.73;;;;;;;22.20;32.63;99120.66;5034604;28;20122;-92
2021/06/01 07:46:44;;;;;;;7.05;1.83;;;;;;;22.31;33.37;99143.81;5035205;28;20061;-90
2021/06/01 07:49:11;;;;;;;2.10;1.73;;;;;;;21.84;34.53;99149.91;5035386;28;20060;-90
2021/06/01 07:55:36;;;;;;;3.55;1.42;;;;;;;22.28;34.79;99125.75;4944984;29;20058;-87
2021/06/01 07:58:19;;;;;;;2.03;1.70;;;;;;;22.13;34.59;99124.75;4969531;28;20104;-88
2021/06/01 08:01:17;;;;;;;3.17;1.88;;;;;;;21.86;33.33;99123.66;5030867;28;20080;-89
2021/06/01 08:07:40;;;;;;;2.55;1.45;;;;;;;22.10;33.58;99123.38;5024396;28;20539;-88
2021/06/01 08:10:16;;;;;;;3.22;1.50;;;;;;;22.07;32.81;99129.38;5032557;28;20053;-88
2021/06/01 08:12:53;;;;;;;3.90;1.58;;;;;;;22.17;33.96;99126.72;5032322;28;20050;-88
2021/06/01 08:15:25;;;;;;;1.23;1.13;;;;;;;22.12;34.27;99114.78;5032023;28;20053;-89
2021/06/01 08:17:57;;;;;;;3.45;1.48;;;;;;;21.95;31.55;99110.19;5024025;28;20391;-88
2021/06/01 08:20:55;;;;;;;2.22;1.40;;;;;;;21.87;31.92;99102.34;5024304;28;20045;-89
2021/06/01 08:23:21;;;;;;;3.58;1.48;;;;;;;22.27;33.46;99114.94;5017336;28;20962;-88
2021/06/01 08:25:54;;;;;;;1.60;1.38;;;;;;;22.55;31.87;99118.50;5034460;28;20073;-89
2021/06/01 08:28:30;;;;;;;1.50;1.40;;;;;;;22.51;31.94;99101.59;5030094;28;20054;-89
2021/06/01 08:31:00;;;;;;;3.03;1.42;;;;;;;22.43;30.40;99102.91;5032127;28;20049;-88
2021/06/01 08:33:29;;;;;;;4.28;1.60;;;;;;;22.42;30.95;99098.47;5031754;28;20501;-88
2021/06/01 08:35:58;;;;;;;3.20;1.70;;;;;;;22.31;30.90;99107.81;5026602;28;20286;-91
2021/06/01 08:38:34;;;;;;;4.72;1.63;;;;;;;22.63;30.66;99099.47;5029490;28;20537;-91
2021/06/01 08:41:13;;;;;;;;;;;;;;;;;;;;;
2021/06/01 08:43:52;;;;;;;5.10;1.77;;;;;;;22.64;32.19;99089.19;5022560;28;20049;-91
2021/06/01 08:46:32;;;;;;;5.30;1.97;;;;;;;22.51;29.42;99078.59;5029990;28;20581;-90
2021/06/01 08:49:01;;;;;;;2.42;1.42;;;;;;;22.91;30.03;99077.19;5034248;28;20050;-93
2021/06/01 08:51:31;;;;;;;2.17;1.30;;;;;;;22.55;30.17;99093.56;5034441;28;20057;-95
2021/06/01 08:54:02;;;;;;;2.25;1.48;;;;;;;22.64;28.89;99075.34;5034520;28;20068;-93
2021/06/01 08:57:02;;;;;;;10.38;1.70;;;;;;;22.47;31.71;99103.22;5034583;28;20045;-93
2021/06/01 08:59:30;;;;;;;1.88;1.70;;;;;;;22.53;31.59;99088.28;5034538;28;20055;-94
2021/06/01 09:01:59;;;;;;;1.90;1.65;;;;;;;22.48;31.46;99090.19;5034457;28;20049;-95
2021/06/01 09:04:28;;;;;;;1.77;1.38;;;;;;;22.68;31.10;99082.03;5034796;28;20164;-95
2021/06/01 09:10:33;;;;;;;2.83;1.45;;;;;;;23.11;29.81;99082.06;5176956;22;20057;-91
2021/06/01 09:21:32;;;;;;;2.28;1.50;;;;;;;22.62;30.66;99086.69;5056245;28;20097;-90
2021/06/01 09:24:02;;;;;;;2.28;1.35;;;;;;;21.94;30.62;99080.03;5093924;22;20180;-94
2021/06/01 09:26:54;;;;;;;4.70;1.90;;;;;;;22.23;30.43;99083.31;5073198;28;20053;-91
2021/06/01 09:29:24;;;;;;;2.95;1.70;;;;;;;22.37;31.08;99067.13;5042497;28;20048;-87
2021/06/01 09:32:12;;;;;;;5.07;1.92;;;;;;;22.38;30.85;99080.69;5058852;28;20607;-87
2021/06/01 09:34:41;;;;;;;1.65;1.35;;;;;;;22.54;30.44;99067.00;5054775;28;20546;-86
2021/06/01 09:37:21;;;;;;;4.05;1.45;;;;;;;22.55;29.22;99071.41;5054911;28;20119;-86
2021/06/01 09:40:27;;;;;;;4.57;1.60;;;;;;;22.77;30.03;99074.88;5054054;28;20063;-87
2021/06/01 09:42:54;;;;;;;1.92;1.45;;;;;;;22.69;27.48;99071.78;5051047;28;20057;-87
2021/06/01 09:45:26;;;;;;;5.45;1.38;;;;;;;22.39;29.24;99065.75;5054271;28;20060;-86
2021/06/01 09:47:58;;;;;;;1.92;1.48;;;;;;;22.58;30.55;99044.03;5053989;28;20049;-86
2021/06/01 09:50:35;;;;;;;7.15;2.22;;;;;;;22.90;29.63;99040.31;5049185;28;20046;-87
2021/06/01 09:53:06;;;;;;;1.95;1.50;;;;;;;23.33;28.17;99043.03;5052664;28;20072;-87
2021/06/01 09:55:40;;;;;;;2.75;1.67;;;;;;;23.52;29.50;99040.59;5052322;28;20048;-86
2021/06/01 09:58:08;;;;;;;2.72;1.38;;;;;;;23.48;27.01;99051.41;5054426;28;20173;-86
2021/06/01 10:00:38;;;;;;;2.13;1.27;;;;;;;23.35;26.50;99043.63;5053190;28;20065;-86
2021/06/01 10:03:12;;;;;;;;;;;;;;;23.49;28.10;99032.84;5054603;28;20088;-87
2021/06/01 10:05:42;;;;;;;2.13;1.50;;;;;;;23.32;28.00;99016.44;5053741;28;19928;-85
2021/06/01 10:08:13;;;;;;;;;;;;;;;23.85;29.97;99036.53;5052426;28;20060;-85
2021/06/01 10:10:49;;;;;;;1.83;1.40;;;;;;;23.89;29.13;99019.31;5054262;28;19951;-87
2021/06/01 10:13:16;;;;;;;2.85;1.65;;;;;;;24.20;26.42;99012.66;5054029;28;20060;-86
2021/06/01 10:15:43;;;;;;;4.25;1.83;;;;;;;24.19;28.55;99012.94;5053055;28;20049;-86
2021/06/01 10:18:17;;;;;;;1.50;1.40;;;;;;;24.12;26.68;99015.19;5047111;28;20500;-83
2021/06/01 10:20:53;;;;;;;2.22;1.70;;;;;;;23.74;26.68;99017.31;5060601;28;20542;-85
2021/06/01 10:23:26;;;;;;;3.72;1.40;;;;;;;23.31;27.36;99014.75;5052875;28;20276;-84
2021/06/01 10:25:52;;;;;;;3.17;1.42;;;;;;;23.33;27.31;99009.75;5055842;28;20044;-84
2021/06/01 10:28:25;;;;;;;2.85;1.60;;;;;;;23.58;28.47;99000.66;5052796;28;20048;-84
2021/06/01 10:30:54;;;;;;;1.30;1.20;;;;;;;23.71;28.05;99015.97;5053261;28;20049;-83
2021/06/01 10:33:27;;;;;;;1.58;1.13;;;;;;;23.83;27.06;99013.75;5051910;28;20052;-84
2021/06/01 10:36:08;;;;;;;1.92;1.30;;;;;;;24.17;27.83;98998.50;5053529;28;20456;-83
2021/06/01 10:50:31;;;;;;;3.35;1.30;;;;;;;24.39;24.68;98995.44;5047233;28;20083;-83
2021/06/01 10:53:26;;;;;;;2.60;1.42;;;;;;;24.34;25.67;99001.84;5040204;28;20489;-84
2021/06/01 10:56:05;;;;;;;1.80;1.50;;;;;;;24.45;24.97;99005.44;5042860;28;20072;-84
2021/06/01 11:01:56;;;;;;;4.63;1.20;;;;;;;25.02;25.17;99003.34;5047617;28;20137;-84
2021/06/01 11:04:27;;;;;;;1.60;1.10;;;;;;;25.13;24.32;98989.38;5051611;28;20103;-84
2021/06/01 11:10:03;;;;;;;1.40;1.30;;;;;;;25.03;25.65;98993.88;5053153;28;20051;-84
2021/06/01 11:12:56;;;;;;;3.75;1.20;;;;;;;24.98;25.32;98979.19;5052078;28;20041;-84
2021/06/01 11:15:48;;;;;;;1.85;1.13;;;;;;;24.54;24.70;98980.69;5029933;28;20045;-84
2021/06/01 11:18:29;;;;;;;3.75;1.30;;;;;;;24.60;26.78;98971.25;5048429;28;20141;-85
2021/06/01 11:21:17;;;;;;;3.25;1.40;;;;;;;24.59;25.71;98971.53;5051649;28;20052;-84
2021/06/01 11:35:42;;;;;;;2.35;1.50;;;;;;;25.08;25.87;98960.50;5043239;28;20049;-84
2021/06/01 11:38:13;;;;;;;3.05;1.35;;;;;;;25.23;25.09;98972.63;5044543;28;20045;-84
2021/06/01 11:40:57;;;;;;;1.77;1.40;;;;;;;25.31;24.14;98963.75;5048351;28;20451;-84
2021/06/01 11:43:26;;;;;;;1.60;1.27;;;;;;;25.20;24.83;98948.19;5050504;28;20048;-84
2021/06/01 11:46:22;;;;;;;1.63;1.10;;;;;;;25.41;25.33;98965.63;5051285;28;20492;-85
2021/06/01 11:51:45;;;;;;;2.83;1.38;;;;;;;25.69;25.34;98955.69;5044813;28;20060;-84
2021/06/01 11:54:15;;;;;;;1.73;1.30;;;;;;;25.67;24.18;98954.31;5050159;28;20037;-84
2021/06/01 11:56:58;;;;;;;4.22;1.40;;;;;;;25.13;25.49;98929.03;5051761;28;20048;-84
2021/06/01 12:02:23;;;;;;;4.10;1.13;;;;;;;25.48;23.86;98935.53;5051532;28;20103;-83
2021/06/01 12:18:45;;;;;;;2.47;1.30;;;;;;;26.00;25.91;98908.13;5055167;28;20186;-83
2021/06/01 12:21:19;;;;;;;1.48;1.27;;;;;;;26.12;26.21;98907.72;5051056;28;20060;-83
2021/06/01 12:23:51;;;;;;;4.28;1.50;;;;;;;26.17;24.06;98921.59;5050433;28;20054;-84
2021/06/01 12:26:25;;;;;;;4.47;1.20;;;;;;;25.34;24.26;98927.00;5053083;28;20072;-83
2021/06/01 12:31:57;;;;;;;2.58;1.33;;;;;;;25.85;24.72;98894.31;5046650;28;20350;-84
2021/06/01 12:34:36;;;;;;;1.58;1.33;;;;;;;26.25;23.49;98897.84;5037350;28;20055;-83
2021/06/01 12:42:57;;;;;;;1.90;1.17;;;;;;;27.36;21.87;98905.09;5050119;28;20531;-84
2021/06/01 12:45:46;;;;;;;2.80;1.30;;;;;;;26.98;21.42;98912.63;5043713;28;20087;-84
2021/06/01 13:08:40;;;;;;;1.98;1.33;;;;;;;26.66;24.03;98881.50;4970088;28;20116;-83
2021/06/01 13:19:39;;;;;;;4.28;1.77;;;;;;;26.41;23.20;98849.19;5049602;28;20515;-81
2021/06/01 13:31:19;;;;;;;3.20;1.40;;;;;;;26.61;26.30;98856.44;5044768;28;20048;-84
2021/06/01 13:39:39;;;;;;;1.40;1.30;;;;;;;27.33;22.88;98841.53;5041644;28;20139;-84
2021/06/01 13:47:49;;;;;;;2.53;1.80;;;;;;;26.95;21.84;98844.31;5047491;28;20084;-82
2021/06/01 13:50:25;;;;;;;1.40;1.30;;;;;;;26.59;24.47;98861.50;5044870;28;20052;-84
2021/06/01 13:53:07;;;;;;;2.25;1.23;;;;;;;26.35;22.56;98827.25;5048317;28;20056;-85
2021/06/01 13:55:37;;;;;;;1.67;1.23;;;;;;;26.96;23.49;98842.34;5037774;28;20057;-84
2021/06/01 13:58:26;;;;;;;2.50;1.48;;;;;;;27.13;23.56;98839.84;5036224;28;20048;-85
2021/06/01 14:01:04;;;;;;;2.22;1.33;;;;;;;26.98;22.92;98828.94;5054458;28;20068;-86
2021/06/01 14:37:18;;;;;;;2.50;1.48;;;;;;;26.69;22.87;98801.19;5049269;28;20126;-85
2021/06/01 15:22:33;;;;;;;1.90;1.30;;;;;;;26.73;23.05;98771.56;5054488;28;20075;-87
2021/06/01 15:30:16;;;;;;;3.33;1.30;;;;;;;26.43;23.07;98746.59;5051997;28;20056;-87
2021/06/01 15:40:57;;;;;;;;;;;;;;;;;;;;;
2021/06/01 15:49:03;;;;;;;;;;;;;;;26.67;23.47;98760.47;5047629;28;20155;-87
2021/06/01 15:52:03;;;;;;;2.38;1.40;;;;;;;26.58;23.95;98741.94;4986932;28;20004;-87
2021/06/01 16:22:01;;;;;;;4.18;1.30;;;;;;;25.41;23.50;98716.03;5049267;28;20181;-88
2021/06/01 16:44:05;;;;;;;1.85;1.20;;;;;;;25.80;22.24;98717.00;4970599;28;20605;-87